createdAt,value
2023-05-17T00:02:01.907Z,7.29
2023-05-17T00:04:29.003Z,7.17
2023-05-17T00:06:55.941Z,7.25
2023-05-17T00:09:22.684Z,7.21
2023-05-17T00:11:49.492Z,7.21
2023-05-17T00:14:16.634Z,7.21
2023-05-17T00:16:43.693Z,7.25
2023-05-17T00:19:10.917Z,7.19
2023-05-17T00:21:38.332Z,7.29
2023-05-17T00:24:05.531Z,7.14
2023-05-17T00:26:34.009Z,7.25
2023-05-17T00:29:00.895Z,7.04
2023-05-17T00:31:27.752Z,7.03
2023-05-17T00:33:54.565Z,7.01
2023-05-17T00:36:21.531Z,7.25
2023-05-17T00:38:48.390Z,7.09
2023-05-17T00:41:15.250Z,6.93
2023-05-17T00:43:42.048Z,6.94
2023-05-17T00:46:08.875Z,6.96
2023-05-17T00:48:36.080Z,6.94
2023-05-17T00:51:03.165Z,6.92
2023-05-17T00:53:30.583Z,6.97
2023-05-17T00:55:57.407Z,6.94
2023-05-17T00:58:24.748Z,6.82
2023-05-17T01:00:51.817Z,6.77
2023-05-17T01:03:18.760Z,6.73
2023-05-17T01:05:45.744Z,6.67
2023-05-17T01:08:12.555Z,6.76
2023-05-17T01:10:48.536Z,6.85
2023-05-17T01:13:33.031Z,6.74
2023-05-17T01:16:25.696Z,6.68
2023-05-17T01:18:59.218Z,6.71
2023-05-17T01:21:44.304Z,6.60
2023-05-17T01:24:26.857Z,6.72
2023-05-17T01:26:55.257Z,6.67
2023-05-17T01:29:26.289Z,6.59
2023-05-17T01:31:53.941Z,6.68
2023-05-17T01:34:27.904Z,6.70
2023-05-17T01:36:54.806Z,6.57
2023-05-17T01:39:21.768Z,6.57
2023-05-17T01:42:00.133Z,6.53
2023-05-17T01:44:35.087Z,6.54
2023-05-17T01:47:12.162Z,6.52
2023-05-17T01:49:41.938Z,6.51
2023-05-17T01:52:19.484Z,6.51
2023-05-17T01:54:48.151Z,6.47
2023-05-17T01:57:16.873Z,6.44
2023-05-17T01:59:45.790Z,6.48
2023-05-17T02:02:14.211Z,6.38
2023-05-17T02:04:41.364Z,6.31
2023-05-17T02:07:08.691Z,6.34
2023-05-17T02:09:35.551Z,6.31
2023-05-17T02:12:02.746Z,6.23
2023-05-17T02:14:29.583Z,6.26
2023-05-17T02:16:57.537Z,6.31
2023-05-17T02:19:24.612Z,6.18
2023-05-17T02:21:51.484Z,6.25
2023-05-17T02:24:18.265Z,6.22
2023-05-17T02:26:46.057Z,6.14
2023-05-17T02:29:12.995Z,6.19
2023-05-17T02:31:39.777Z,6.16
2023-05-17T02:34:06.583Z,6.13
2023-05-17T02:36:33.558Z,6.15
2023-05-17T02:39:00.428Z,6.27
2023-05-17T02:41:27.285Z,6.16
2023-05-17T02:43:54.080Z,6.10
2023-05-17T02:46:21.744Z,6.18
2023-05-17T02:48:48.625Z,6.16
2023-05-17T02:51:15.921Z,6.07
2023-05-17T02:53:42.738Z,6.08
2023-05-17T02:56:09.537Z,6.11
2023-05-17T02:58:36.353Z,6.16
2023-05-17T03:01:03.272Z,6.15
2023-05-17T03:03:31.784Z,6.04
2023-05-17T03:06:02.742Z,6.00
2023-05-17T03:08:29.633Z,6.05
2023-05-17T03:10:56.531Z,6.01
2023-05-17T03:13:23.340Z,6.01
2023-05-17T03:15:50.122Z,6.01
2023-05-17T03:18:17.105Z,6.02
2023-05-17T03:20:44.113Z,5.97
2023-05-17T03:23:11.050Z,5.97
2023-05-17T03:25:37.819Z,6.02
2023-05-17T03:28:04.871Z,6.02
2023-05-17T03:30:31.807Z,5.94
2023-05-17T03:32:58.867Z,6.05
2023-05-17T03:35:25.933Z,5.93
2023-05-17T03:37:52.804Z,5.82
2023-05-17T03:40:19.683Z,5.84
2023-05-17T03:42:46.425Z,5.83
2023-05-17T03:45:13.371Z,5.82
2023-05-17T03:47:40.279Z,5.86
2023-05-17T03:50:07.988Z,5.85
2023-05-17T03:52:34.873Z,5.82
2023-05-17T03:55:01.731Z,5.81
2023-05-17T03:57:28.549Z,5.84
2023-05-17T03:59:55.391Z,5.85
2023-05-17T04:02:22.359Z,5.86
2023-05-17T04:04:50.641Z,5.85
2023-05-17T04:07:17.916Z,5.91
2023-05-17T04:09:45.383Z,5.99
2023-05-17T04:12:12.280Z,5.93
2023-05-17T04:14:39.196Z,5.98
2023-05-17T04:17:06.168Z,6.08
2023-05-17T04:19:34.126Z,6.05
2023-05-17T04:22:00.967Z,6.13
2023-05-17T04:24:27.808Z,6.09
2023-05-17T04:26:54.599Z,6.19
2023-05-17T04:29:21.529Z,6.22
2023-05-17T04:31:49.555Z,6.27
2023-05-17T04:34:16.553Z,6.29
2023-05-17T04:36:43.429Z,6.26
2023-05-17T04:39:10.221Z,6.27
2023-05-17T04:41:38.051Z,6.32
2023-05-17T04:44:06.087Z,6.39
2023-05-17T04:46:32.912Z,6.47
2023-05-17T04:49:00.456Z,6.45
2023-05-17T04:51:27.904Z,6.39
2023-05-17T04:53:55.118Z,6.52
2023-05-17T04:56:22.870Z,6.62
2023-05-17T04:58:50.980Z,6.68
2023-05-17T05:01:19.030Z,6.72
2023-05-17T05:03:46.296Z,6.73
2023-05-17T05:06:13.222Z,6.77
2023-05-17T05:08:40.057Z,7.00
2023-05-17T05:11:06.969Z,6.87
2023-05-17T05:13:33.856Z,6.99
2023-05-17T05:16:00.821Z,7.10
2023-05-17T05:18:27.776Z,7.22
2023-05-17T05:20:54.777Z,7.20
2023-05-17T05:23:21.654Z,7.19
2023-05-17T05:25:48.480Z,7.35
2023-05-17T05:28:15.234Z,7.36
2023-05-17T05:30:42.163Z,7.31
2023-05-17T05:33:09.198Z,7.54
2023-05-17T05:35:36.071Z,7.50
2023-05-17T05:38:03.368Z,7.78
2023-05-17T05:40:30.295Z,7.95
2023-05-17T05:42:57.332Z,8.07
2023-05-17T05:45:24.143Z,7.95
2023-05-17T05:47:51.110Z,8.25
2023-05-17T05:50:18.026Z,8.38
2023-05-17T05:52:47.729Z,8.51
2023-05-17T05:55:14.636Z,8.46
2023-05-17T05:57:41.550Z,8.64
2023-05-17T06:00:09.313Z,8.71
2023-05-17T06:02:36.545Z,8.64
2023-05-17T06:05:04.123Z,8.74
2023-05-17T06:07:31.012Z,9.05
2023-05-17T06:09:58.055Z,9.18
2023-05-17T06:12:24.949Z,9.23
2023-05-17T06:14:51.793Z,9.41
2023-05-17T06:17:18.695Z,9.30
2023-05-17T06:19:45.617Z,9.55
2023-05-17T06:22:12.432Z,9.57
2023-05-17T06:24:39.177Z,9.64
2023-05-17T06:27:07.423Z,9.63
2023-05-17T06:29:34.684Z,9.70
2023-05-17T06:32:01.426Z,9.66
2023-05-17T06:34:28.627Z,10.00
2023-05-17T06:36:55.532Z,10.17
2023-05-17T06:39:22.364Z,9.98
2023-05-17T06:41:49.169Z,10.26
2023-05-17T06:44:16.234Z,10.14
2023-05-17T06:46:42.991Z,10.22
2023-05-17T06:49:09.837Z,10.27
2023-05-17T06:51:36.698Z,10.63
2023-05-17T06:54:03.654Z,10.49
2023-05-17T06:56:30.508Z,10.83
2023-05-17T06:58:57.354Z,10.74
2023-05-17T07:01:24.888Z,10.95
2023-05-17T07:03:51.798Z,11.21
2023-05-17T07:06:18.764Z,10.99
2023-05-17T07:08:46.422Z,10.98
2023-05-17T07:11:13.260Z,11.11
2023-05-17T07:13:40.174Z,11.04
2023-05-17T07:16:10.908Z,11.31
2023-05-17T07:18:40.507Z,11.49
2023-05-17T07:21:07.497Z,11.32
2023-05-17T07:23:34.359Z,11.70
2023-05-17T07:26:01.142Z,11.67
2023-05-17T07:28:27.942Z,12.01
2023-05-17T07:30:54.950Z,12.26
2023-05-17T07:33:21.741Z,13.46
2023-05-17T07:35:48.736Z,13.25
2023-05-17T07:38:15.563Z,12.92
2023-05-17T07:40:42.319Z,12.01
2023-05-17T07:43:09.144Z,12.72
2023-05-17T07:45:35.934Z,12.92
2023-05-17T07:48:02.839Z,12.18
2023-05-17T07:50:29.848Z,11.91
2023-05-17T07:52:59.029Z,12.61
2023-05-17T07:55:25.828Z,12.35
2023-05-17T07:57:52.895Z,12.27
2023-05-17T08:00:20.244Z,12.11
2023-05-17T08:02:47.052Z,12.00
2023-05-17T08:05:14.115Z,11.82
2023-05-17T08:07:41.035Z,11.67
2023-05-17T08:10:08.454Z,12.09
2023-05-17T08:12:35.492Z,12.01
2023-05-17T08:15:02.671Z,11.66
2023-05-17T08:17:29.558Z,11.76
2023-05-17T08:19:56.542Z,11.54
2023-05-17T08:22:23.388Z,11.75
2023-05-17T08:24:50.209Z,11.86
2023-05-17T08:27:17.246Z,12.07
2023-05-17T08:29:44.166Z,11.82
2023-05-17T08:32:11.157Z,12.46
2023-05-17T08:34:38.231Z,11.97
2023-05-17T08:37:05.273Z,12.14
2023-05-17T08:39:32.863Z,11.84
2023-05-17T08:42:01.972Z,11.81
2023-05-17T08:44:28.865Z,11.80
2023-05-17T08:46:56.929Z,12.43
2023-05-17T08:49:26.081Z,11.90
2023-05-17T08:51:55.615Z,11.89
2023-05-17T08:54:22.994Z,11.91
2023-05-17T08:56:54.142Z,11.80
2023-05-17T08:59:22.134Z,11.94
2023-05-17T09:01:50.059Z,11.36
2023-05-17T09:04:17.739Z,11.70
2023-05-17T09:06:45.031Z,12.24
2023-05-17T09:09:11.990Z,11.94
2023-05-17T09:11:39.169Z,12.35
2023-05-17T09:14:07.596Z,12.16
2023-05-17T09:16:36.514Z,12.36
2023-05-17T09:19:05.824Z,11.84
2023-05-17T09:21:33.312Z,11.78
2023-05-17T09:26:42.664Z,12.62
2023-05-17T09:29:11.034Z,12.04
2023-05-17T09:31:38.391Z,12.03
2023-05-17T09:34:07.415Z,12.50
2023-05-17T09:36:37.002Z,12.16
2023-05-17T09:39:06.334Z,12.48
2023-05-17T09:41:42.375Z,12.66
2023-05-17T09:44:10.625Z,12.27
2023-05-17T09:46:41.997Z,12.50
2023-05-17T09:49:09.651Z,12.48
2023-05-17T09:51:39.264Z,12.29
2023-05-17T09:54:10.665Z,12.36
2023-05-17T09:56:37.778Z,12.28
2023-05-17T09:59:11.156Z,12.40
2023-05-17T10:01:44.062Z,12.90
2023-05-17T10:04:12.173Z,12.66
2023-05-17T10:09:14.226Z,12.63
2023-05-17T10:11:44.689Z,12.56
2023-05-17T10:14:18.732Z,12.37
2023-05-17T10:16:45.979Z,12.37
2023-05-17T10:19:14.484Z,13.41
2023-05-17T10:21:43.117Z,13.31
2023-05-17T10:24:11.594Z,13.71
2023-05-17T10:26:39.037Z,13.33
2023-05-17T10:29:06.436Z,12.79
2023-05-17T10:31:34.670Z,13.16
2023-05-17T10:34:03.461Z,12.77
2023-05-17T10:36:31.442Z,12.77
2023-05-17T10:38:59.635Z,12.58
2023-05-17T10:41:33.311Z,12.68
2023-05-17T10:44:03.629Z,12.69
2023-05-17T10:46:31.115Z,12.67
2023-05-17T10:49:01.968Z,12.53
2023-05-17T10:51:36.962Z,12.61
2023-05-17T10:54:18.559Z,12.62
2023-05-17T10:56:52.965Z,12.93
2023-05-17T10:59:29.828Z,12.83
2023-05-17T11:02:07.164Z,12.42
2023-05-17T11:04:41.209Z,12.25
2023-05-17T11:07:22.386Z,12.47
2023-05-17T11:09:50.284Z,12.54
2023-05-17T11:12:30.704Z,12.81
2023-05-17T11:14:58.749Z,13.03
2023-05-17T11:17:28.129Z,13.14
2023-05-17T11:19:55.217Z,13.31
2023-05-17T11:22:34.297Z,13.77
2023-05-17T11:25:05.926Z,13.97
2023-05-17T11:27:38.011Z,13.77
2023-05-17T11:30:29.201Z,13.23
2023-05-17T11:33:00.891Z,13.78
2023-05-17T11:35:38.610Z,14.21
2023-05-17T11:38:22.437Z,14.55
2023-05-17T11:40:50.963Z,14.09
2023-05-17T11:43:20.259Z,14.27
2023-05-17T11:45:53.285Z,15.07
2023-05-17T11:48:22.933Z,14.76
2023-05-17T11:50:51.712Z,15.20
2023-05-17T11:53:19.159Z,13.84
2023-05-17T11:55:51.077Z,14.34
2023-05-17T11:58:36.313Z,14.59
2023-05-17T12:01:04.483Z,14.41
2023-05-17T12:03:33.402Z,14.82
2023-05-17T12:06:13.490Z,14.23
2023-05-17T12:08:45.294Z,15.02
2023-05-17T12:11:15.002Z,15.18
2023-05-17T12:13:47.107Z,15.31
2023-05-17T12:16:17.900Z,15.06
2023-05-17T12:18:49.156Z,16.58
2023-05-17T12:21:18.442Z,17.66
2023-05-17T12:23:48.871Z,17.10
2023-05-17T12:26:24.593Z,17.24
2023-05-17T12:28:59.071Z,17.32
2023-05-17T12:31:38.601Z,16.62
2023-05-17T12:34:07.345Z,16.17
2023-05-17T12:36:34.487Z,16.69
2023-05-17T12:39:02.527Z,16.79
2023-05-17T12:41:30.916Z,18.22
2023-05-17T12:44:13.605Z,17.42
2023-05-17T12:46:42.099Z,16.49
2023-05-17T12:49:09.794Z,16.28
2023-05-17T12:51:44.304Z,16.61
2023-05-17T12:54:24.501Z,16.41
2023-05-17T12:56:51.808Z,16.79
2023-05-17T12:59:19.444Z,16.45
2023-05-17T13:01:48.754Z,16.68
2023-05-17T13:04:17.611Z,15.60
2023-05-17T13:06:49.781Z,16.72
2023-05-17T13:09:22.201Z,17.75
2023-05-17T13:11:53.943Z,18.91
2023-05-17T13:14:38.028Z,19.46
2023-05-17T13:17:07.230Z,19.31
2023-05-17T13:19:36.211Z,17.84
2023-05-17T13:22:04.252Z,19.33
2023-05-17T13:24:35.995Z,19.89
2023-05-17T13:27:03.666Z,20.39
2023-05-17T13:29:38.683Z,17.43
2023-05-17T13:32:08.474Z,18.35
2023-05-17T13:34:35.856Z,19.04
2023-05-17T13:37:02.672Z,18.19
2023-05-17T13:39:29.481Z,18.77
2023-05-17T13:41:56.336Z,18.04
2023-05-17T13:44:23.285Z,16.99
2023-05-17T13:46:50.109Z,18.18
2023-05-17T13:49:17.560Z,18.31
2023-05-17T13:51:45.283Z,17.33
2023-05-17T13:54:12.195Z,16.72
2023-05-17T13:56:39.068Z,16.67
2023-05-17T13:59:05.968Z,17.91
2023-05-17T14:01:32.834Z,18.87
2023-05-17T14:04:01.070Z,20.16
2023-05-17T14:06:28.580Z,19.54
2023-05-17T14:08:57.337Z,18.51
2023-05-17T14:11:24.146Z,19.49
2023-05-17T14:13:51.296Z,21.10
2023-05-17T14:16:18.093Z,20.43
2023-05-17T14:18:46.191Z,20.25
2023-05-17T14:21:13.252Z,21.56
2023-05-17T14:23:40.015Z,20.62
2023-05-17T14:26:09.712Z,19.39
2023-05-17T14:28:38.450Z,20.30
2023-05-17T14:31:07.186Z,20.14
2023-05-17T14:33:34.342Z,20.98
2023-05-17T14:36:01.438Z,21.22
2023-05-17T14:38:28.401Z,21.13
2023-05-17T14:40:55.317Z,20.13
2023-05-17T14:43:22.674Z,18.76
2023-05-17T14:45:49.437Z,17.58
2023-05-17T14:48:16.814Z,17.82
2023-05-17T14:50:43.830Z,17.80
2023-05-17T14:53:10.622Z,17.84
2023-05-17T14:55:37.432Z,18.19
2023-05-17T14:58:04.295Z,18.76
2023-05-17T15:00:31.083Z,20.60
2023-05-17T15:02:58.393Z,19.89
2023-05-17T15:05:25.958Z,20.66
2023-05-17T15:07:52.870Z,19.76
2023-05-17T15:10:19.858Z,20.54
2023-05-17T15:12:47.585Z,18.86
2023-05-17T15:15:14.565Z,19.30
2023-05-17T15:17:41.850Z,18.37
2023-05-17T15:20:09.425Z,18.82
2023-05-17T15:22:36.904Z,17.02
2023-05-17T15:25:05.034Z,17.41
2023-05-17T15:27:31.918Z,17.59
2023-05-17T15:29:58.825Z,17.97
2023-05-17T15:32:25.915Z,17.06
2023-05-17T15:34:52.877Z,18.06
2023-05-17T15:37:19.845Z,19.15
2023-05-17T15:39:46.906Z,20.14
2023-05-17T15:42:13.705Z,19.76
2023-05-17T15:44:40.479Z,21.22
2023-05-17T15:47:07.396Z,21.05
2023-05-17T15:49:34.396Z,20.50
2023-05-17T15:52:01.610Z,20.63
2023-05-17T15:54:28.617Z,19.46
2023-05-17T15:56:55.444Z,20.02
2023-05-17T15:59:22.435Z,20.89
2023-05-17T16:01:49.719Z,20.30
2023-05-17T16:04:19.493Z,20.59
2023-05-17T16:06:53.318Z,20.56
2023-05-17T16:09:20.269Z,21.15
2023-05-17T16:11:47.236Z,18.94
2023-05-17T16:14:14.100Z,18.75
2023-05-17T16:16:41.858Z,19.34
2023-05-17T16:19:09.154Z,19.44
2023-05-17T16:21:36.149Z,19.78
2023-05-17T16:24:04.463Z,19.39
2023-05-17T16:26:31.238Z,19.03
2023-05-17T16:28:58.999Z,19.58
2023-05-17T16:31:26.028Z,18.00
2023-05-17T16:33:53.157Z,17.25
2023-05-17T16:36:22.714Z,18.89
2023-05-17T16:38:50.394Z,17.80
2023-05-17T16:41:17.325Z,16.28
2023-05-17T16:43:44.246Z,18.64
2023-05-17T16:46:11.024Z,18.36
2023-05-17T16:48:37.821Z,17.67
2023-05-17T16:51:04.949Z,17.18
2023-05-17T16:53:31.826Z,16.84
2023-05-17T16:55:58.620Z,16.54
2023-05-17T16:58:26.275Z,16.16
2023-05-17T17:00:53.292Z,15.95
2023-05-17T17:03:20.144Z,15.74
2023-05-17T17:05:47.045Z,15.81
2023-05-17T17:08:13.850Z,15.94
2023-05-17T17:10:40.684Z,16.10
2023-05-17T17:13:07.524Z,15.77
2023-05-17T17:15:34.516Z,15.65
2023-05-17T17:18:01.424Z,15.88
2023-05-17T17:20:28.716Z,15.48
2023-05-17T17:22:56.254Z,15.56
2023-05-17T17:25:24.922Z,15.64
2023-05-17T17:27:53.237Z,15.33
2023-05-17T17:30:20.430Z,15.45
2023-05-17T17:32:47.568Z,15.65
2023-05-17T17:35:14.524Z,15.26
2023-05-17T17:37:41.420Z,15.21
2023-05-17T17:40:09.032Z,14.78
2023-05-17T17:42:36.023Z,14.85
2023-05-17T17:45:02.844Z,14.87
2023-05-17T17:47:29.628Z,15.73
2023-05-17T17:49:56.610Z,14.86
2023-05-17T17:52:24.008Z,14.77
2023-05-17T17:54:51.174Z,14.50
2023-05-17T17:57:19.645Z,14.50
2023-05-17T17:59:46.451Z,14.54
2023-05-17T18:02:13.360Z,14.31
2023-05-17T18:04:41.158Z,14.20
2023-05-17T18:07:08.955Z,14.07
2023-05-17T18:09:35.878Z,13.91
2023-05-17T18:12:02.732Z,13.80
2023-05-17T18:14:29.525Z,13.75
2023-05-17T18:16:56.440Z,13.70
2023-05-17T18:19:23.556Z,13.61
2023-05-17T18:21:50.966Z,13.55
2023-05-17T18:24:17.880Z,13.48
2023-05-17T18:26:45.050Z,13.43
2023-05-17T18:29:11.915Z,13.33
2023-05-17T18:31:38.906Z,13.28
2023-05-17T18:34:05.723Z,13.18
2023-05-17T18:36:32.669Z,13.08
2023-05-17T18:39:01.094Z,13.02
2023-05-17T18:41:31.029Z,12.91
2023-05-17T18:44:02.161Z,12.83
2023-05-17T18:46:29.981Z,12.74
2023-05-17T18:48:56.939Z,12.67
2023-05-17T18:51:23.776Z,12.65
2023-05-17T18:53:50.645Z,12.60
2023-05-17T18:56:22.998Z,12.54
2023-05-17T18:58:55.736Z,12.43
2023-05-17T19:01:22.689Z,12.38
2023-05-17T19:03:59.363Z,12.22
2023-05-17T19:06:29.475Z,12.16
2023-05-17T19:08:58.415Z,12.16
2023-05-17T19:11:26.450Z,12.15
2023-05-17T19:13:53.231Z,12.08
2023-05-17T19:16:20.172Z,12.08
2023-05-17T19:18:47.060Z,12.09
2023-05-17T19:21:13.902Z,12.12
2023-05-17T19:23:41.117Z,12.08
2023-05-17T19:26:07.900Z,12.04
2023-05-17T19:28:36.113Z,11.94
2023-05-17T19:31:04.078Z,11.91
2023-05-17T19:33:32.264Z,11.91
2023-05-17T19:35:59.083Z,11.91
2023-05-17T19:38:25.854Z,11.91
2023-05-17T19:40:52.835Z,11.80
2023-05-17T19:43:19.759Z,11.80
2023-05-17T19:45:46.575Z,11.71
2023-05-17T19:48:13.593Z,11.70
2023-05-17T19:50:40.495Z,11.58
2023-05-17T19:53:07.265Z,11.55
2023-05-17T19:55:34.714Z,11.45
2023-05-17T19:58:01.552Z,11.43
2023-05-17T20:00:30.128Z,11.40
2023-05-17T20:02:57.556Z,11.39
2023-05-17T20:05:25.679Z,11.35
2023-05-17T20:07:52.513Z,11.26
2023-05-17T20:10:19.351Z,11.21
2023-05-17T20:12:46.992Z,11.15
2023-05-17T20:15:13.949Z,11.10
2023-05-17T20:17:40.823Z,11.02
2023-05-17T20:20:08.387Z,10.97
2023-05-17T20:22:43.927Z,10.87
2023-05-17T20:25:11.618Z,10.84
2023-05-17T20:27:38.922Z,10.78
2023-05-17T20:30:07.621Z,10.74
2023-05-17T20:32:34.558Z,10.73
2023-05-17T20:35:01.696Z,10.64
2023-05-17T20:37:28.778Z,10.62
2023-05-17T20:39:59.630Z,10.52
2023-05-17T20:42:28.507Z,10.53
2023-05-17T20:44:55.801Z,10.43
2023-05-17T20:47:23.077Z,10.51
2023-05-17T20:49:50.582Z,10.47
2023-05-17T20:52:31.376Z,10.50
2023-05-17T20:55:06.313Z,10.44
2023-05-17T20:57:33.127Z,10.41
2023-05-17T20:59:59.984Z,10.43
2023-05-17T21:02:27.032Z,10.35
2023-05-17T21:04:54.902Z,10.34
2023-05-17T21:07:26.685Z,10.32
2023-05-17T21:09:53.506Z,10.33
2023-05-17T21:12:21.900Z,10.29
2023-05-17T21:15:00.525Z,10.26
2023-05-17T21:17:35.263Z,10.24
2023-05-17T21:20:02.251Z,10.25
2023-05-17T21:22:29.131Z,10.18
2023-05-17T21:24:55.911Z,10.12
2023-05-17T21:27:22.725Z,10.02
2023-05-17T21:29:49.464Z,10.02
2023-05-17T21:32:17.369Z,9.99
2023-05-17T21:34:45.195Z,9.94
2023-05-17T21:37:12.213Z,9.93
2023-05-17T21:39:39.058Z,9.92
2023-05-17T21:42:06.222Z,9.84
2023-05-17T21:44:33.000Z,9.81
2023-05-17T21:47:00.286Z,9.76
2023-05-17T21:49:28.846Z,9.70
2023-05-17T21:51:55.702Z,9.60
2023-05-17T21:54:24.669Z,9.61
2023-05-17T21:56:51.782Z,9.55
2023-05-17T21:59:19.017Z,9.53
2023-05-17T22:01:46.114Z,9.39
2023-05-17T22:04:13.059Z,9.41
2023-05-17T22:06:39.889Z,9.36
2023-05-17T22:09:07.347Z,9.31
2023-05-17T22:11:38.489Z,9.24
2023-05-17T22:14:08.429Z,9.26
2023-05-17T22:16:36.229Z,9.20
2023-05-17T22:19:04.113Z,9.16
2023-05-17T22:21:31.863Z,9.14
2023-05-17T22:23:59.353Z,9.17
2023-05-17T22:26:28.003Z,9.11
2023-05-17T22:28:55.918Z,8.99
2023-05-17T22:31:23.155Z,8.96
2023-05-17T22:33:50.649Z,8.89
2023-05-17T22:36:19.297Z,8.94
2023-05-17T22:38:46.591Z,8.80
2023-05-17T22:41:13.964Z,8.71
2023-05-17T22:43:40.851Z,8.71
2023-05-17T22:46:08.020Z,8.59
2023-05-17T22:48:37.586Z,8.63
2023-05-17T22:51:04.621Z,8.48
2023-05-17T22:53:31.888Z,8.40
2023-05-17T22:55:58.975Z,8.41
2023-05-17T22:58:26.054Z,8.20
2023-05-17T23:00:53.173Z,8.20
2023-05-17T23:03:20.669Z,8.19
2023-05-17T23:05:47.637Z,8.22
2023-05-17T23:08:17.699Z,8.08
2023-05-17T23:10:45.071Z,7.96
2023-05-17T23:13:15.630Z,7.72
2023-05-17T23:15:47.179Z,7.94
2023-05-17T23:18:14.122Z,7.93
2023-05-17T23:20:42.329Z,7.90
2023-05-17T23:23:09.238Z,7.94
2023-05-17T23:25:37.523Z,7.72
2023-05-17T23:28:04.903Z,7.68
2023-05-17T23:30:32.454Z,7.97
2023-05-17T23:33:00.377Z,7.85
2023-05-17T23:35:27.388Z,7.82
2023-05-17T23:37:54.376Z,7.82
2023-05-17T23:40:21.359Z,7.71
2023-05-17T23:42:48.213Z,7.90
2023-05-17T23:45:15.100Z,7.98
2023-05-17T23:47:41.920Z,7.86
2023-05-17T23:50:12.261Z,7.84
2023-05-17T23:52:39.482Z,7.58
2023-05-17T23:55:07.604Z,7.62
2023-05-17T23:57:35.473Z,7.50
